Time;durP1;ratioP1;P1;durP2;ratioP2;P2;SDS_P1;SDS_P2;PMS_P1;PMS_P2;Temp;Humidity;BMP_temperature;BMP_pressure;BME280_temperature;BME280_humidity;BME280_pressure;Samples;Min_cycle;Max_cycle;Signal;HPM_P1;HPM_P2
2023/09/20 00:00:51;;;;;;;14.05;3.50;;;;;;;;;;5036585;28;20044;-31
2023/09/20 00:03:16;;;;;;;11.25;2.63;;;;;;;;;;5036786;28;20026;-30
2023/09/20 00:05:43;;;;;;;11.37;2.70;;;;;;;;;;5035243;28;20056;-31
2023/09/20 00:08:08;;;;;;;9.85;2.80;;;;;;;;;;5036691;28;20021;-31
2023/09/20 00:10:33;;;;;;;12.07;2.88;;;;;;;;;;5036460;28;20472;-30
2023/09/20 00:12:59;;;;;;;13.20;3.28;;;;;;;;;;5036924;28;20049;-31
2023/09/20 00:15:25;;;;;;;11.43;2.65;;;;;;;;;;5036247;28;20022;-31
2023/09/20 00:17:50;;;;;;;9.33;3.00;;;;;;;;;;5036781;28;20100;-30
2023/09/20 00:20:16;;;;;;;15.73;3.53;;;;;;;;;;5036711;28;20338;-30
2023/09/20 00:22:42;;;;;;;8.43;2.47;;;;;;;;;;5036128;28;20021;-30
2023/09/20 00:25:08;;;;;;;10.55;3.00;;;;;;;;;;5036571;28;20112;-31
2023/09/20 00:27:34;;;;;;;11.38;2.88;;;;;;;;;;5035346;28;20079;-30
2023/09/20 00:29:59;;;;;;;8.68;2.60;;;;;;;;;;5036029;28;20014;-30
2023/09/20 00:32:24;;;;;;;10.10;2.60;;;;;;;;;;5036549;28;20022;-30
2023/09/20 00:34:51;;;;;;;9.87;3.00;;;;;;;;;;5035872;28;20343;-30
2023/09/20 00:37:16;;;;;;;12.63;2.78;;;;;;;;;;5035973;28;20343;-31
2023/09/20 00:39:41;;;;;;;11.37;2.43;;;;;;;;;;5035873;28;20494;-31
2023/09/20 00:42:07;;;;;;;14.95;3.17;;;;;;;;;;5036402;28;20339;-31
2023/09/20 00:44:32;;;;;;;13.10;3.07;;;;;;;;;;5035692;28;20024;-31
2023/09/20 00:46:58;;;;;;;7.97;2.37;;;;;;;;;;5036278;28;20064;-31
2023/09/20 00:49:24;;;;;;;8.52;2.75;;;;;;;;;;5036009;28;20727;-31
2023/09/20 00:51:49;;;;;;;8.48;2.72;;;;;;;;;;5035924;28;20093;-31
2023/09/20 00:54:15;;;;;;;9.07;2.60;;;;;;;;;;5035576;28;20461;-31
2023/09/20 00:56:40;;;;;;;11.75;2.80;;;;;;;;;;5035542;28;20376;-31
2023/09/20 00:59:07;;;;;;;12.67;2.87;;;;;;;;;;5034808;28;20528;-31
2023/09/20 01:01:33;;;;;;;7.95;2.60;;;;;;;;;;5035015;28;20261;-31
2023/09/20 01:03:59;;;;;;;9.73;2.90;;;;;;;;;;5034491;28;20013;-31
2023/09/20 01:06:26;;;;;;;9.60;2.55;;;;;;;;;;5034336;28;20022;-31
2023/09/20 01:08:53;;;;;;;15.18;2.78;;;;;;;;;;5034567;28;20026;-32
2023/09/20 01:11:19;;;;;;;11.15;2.92;;;;;;;;;;5034874;28;20395;-31
2023/09/20 01:13:44;;;;;;;12.13;3.03;;;;;;;;;;5035087;28;20063;-31
2023/09/20 01:16:10;;;;;;;11.30;3.10;;;;;;;;;;5035485;28;20092;-31
2023/09/20 01:18:35;;;;;;;12.65;3.35;;;;;;;;;;5035468;28;20063;-31
2023/09/20 01:21:00;;;;;;;10.73;3.40;;;;;;;;;;5035114;28;20022;-31
2023/09/20 01:23:26;;;;;;;13.55;3.10;;;;;;;;;;5035394;28;20347;-31
2023/09/20 01:25:51;;;;;;;13.63;3.20;;;;;;;;;;5035539;28;20018;-32
2023/09/20 01:28:16;;;;;;;11.03;3.03;;;;;;;;;;5034985;28;20444;-32
2023/09/20 01:30:42;;;;;;;9.80;3.20;;;;;;;;;;5035230;28;20599;-32
2023/09/20 01:33:08;;;;;;;14.48;2.85;;;;;;;;;;5034711;28;20292;-31
2023/09/20 01:35:34;;;;;;;10.18;3.10;;;;;;;;;;5035432;28;20127;-32
2023/09/20 01:37:59;;;;;;;9.75;3.20;;;;;;;;;;5034620;28;20026;-32
2023/09/20 01:40:28;;;;;;;13.27;3.03;;;;;;;;;;5035045;28;20018;-30
2023/09/20 01:42:54;;;;;;;15.77;2.97;;;;;;;;;;5034609;28;20260;-31
2023/09/20 01:45:20;;;;;;;11.20;3.10;;;;;;;;;;5035147;28;20104;-32
2023/09/20 01:47:54;;;;;;;12.90;3.20;;;;;;;;;;5034929;28;20017;-31
2023/09/20 01:50:24;;;;;;;12.70;3.50;;;;;;;;;;5034624;28;20022;-31
2023/09/20 01:52:51;;;;;;;12.38;3.10;;;;;;;;;;5034640;28;20018;-31
2023/09/20 01:55:18;;;;;;;10.98;2.90;;;;;;;;;;5033531;28;20025;-32
2023/09/20 01:57:47;;;;;;;15.43;3.58;;;;;;;;;;5033239;28;20021;-31
2023/09/20 02:00:22;;;;;;;12.15;3.55;;;;;;;;;;5034394;28;20100;-31
2023/09/20 02:02:48;;;;;;;12.00;3.40;;;;;;;;;;5034284;28;20025;-38
2023/09/20 02:05:14;;;;;;;9.82;3.20;;;;;;;;;;5033003;28;20097;-31
2023/09/20 02:07:39;;;;;;;13.43;3.30;;;;;;;;;;5034249;28;20456;-31
2023/09/20 02:10:07;;;;;;;10.07;3.03;;;;;;;;;;5034244;28;20018;-31
2023/09/20 02:12:34;;;;;;;13.15;3.40;;;;;;;;;;5034463;28;20021;-32
2023/09/20 02:14:59;;;;;;;12.88;3.10;;;;;;;;;;5034408;28;20041;-31
2023/09/20 02:17:26;;;;;;;16.17;3.42;;;;;;;;;;5034077;28;20053;-31
2023/09/20 02:19:51;;;;;;;12.57;3.30;;;;;;;;;;5034030;28;20021;-32
2023/09/20 02:22:16;;;;;;;11.47;3.57;;;;;;;;;;5034293;28;20069;-32
2023/09/20 02:24:42;;;;;;;13.00;3.22;;;;;;;;;;5033982;28;20488;-31
2023/09/20 02:27:08;;;;;;;12.77;3.30;;;;;;;;;;5034188;28;20018;-32
2023/09/20 02:29:33;;;;;;;19.83;3.60;;;;;;;;;;5034123;28;20364;-32
2023/09/20 02:32:00;;;;;;;9.00;3.08;;;;;;;;;;5033890;28;20020;-30
2023/09/20 02:34:25;;;;;;;9.82;2.83;;;;;;;;;;5033736;28;20045;-32
2023/09/20 02:36:51;;;;;;;12.88;3.25;;;;;;;;;;5034351;28;20105;-30
2023/09/20 02:39:18;;;;;;;13.20;3.15;;;;;;;;;;5033993;28;20029;-30
2023/09/20 02:41:43;;;;;;;16.52;3.45;;;;;;;;;;5034232;28;20018;-31
2023/09/20 02:44:08;;;;;;;10.73;3.83;;;;;;;;;;5033846;28;20052;-31
2023/09/20 02:46:33;;;;;;;15.57;3.20;;;;;;;;;;5034219;28;20014;-31
2023/09/20 02:48:59;;;;;;;9.55;3.20;;;;;;;;;;5033858;28;20016;-31
2023/09/20 02:51:24;;;;;;;8.60;3.17;;;;;;;;;;5033067;28;20022;-31
2023/09/20 02:53:49;;;;;;;9.27;3.30;;;;;;;;;;5034057;28;20343;-32
2023/09/20 02:56:14;;;;;;;11.17;3.40;;;;;;;;;;5033808;28;20014;-32
2023/09/20 02:58:39;;;;;;;7.13;3.07;;;;;;;;;;5033517;28;20252;-31
2023/09/20 03:01:08;;;;;;;10.33;2.97;;;;;;;;;;5034046;28;20248;-31
2023/09/20 03:03:33;;;;;;;10.52;2.80;;;;;;;;;;5033985;28;20264;-32
2023/09/20 03:06:06;;;;;;;12.90;3.37;;;;;;;;;;5033412;28;20032;-31
2023/09/20 03:08:33;;;;;;;11.32;3.47;;;;;;;;;;5034195;28;20271;-31
2023/09/20 03:10:59;;;;;;;9.45;2.85;;;;;;;;;;5034521;28;20014;-31
2023/09/20 03:13:26;;;;;;;12.45;3.47;;;;;;;;;;5033642;28;20025;-32
2023/09/20 03:15:54;;;;;;;12.98;2.92;;;;;;;;;;5033342;28;20021;-32
2023/09/20 03:18:22;;;;;;;10.02;2.90;;;;;;;;;;5033574;28;20028;-31
2023/09/20 03:20:48;;;;;;;8.50;3.08;;;;;;;;;;5033258;28;20055;-32
2023/09/20 03:23:14;;;;;;;11.30;3.10;;;;;;;;;;5033366;28;20017;-32
2023/09/20 03:25:40;;;;;;;8.93;2.83;;;;;;;;;;5033135;28;20522;-31
2023/09/20 03:28:07;;;;;;;16.33;3.20;;;;;;;;;;5033294;28;20013;-31
2023/09/20 03:30:33;;;;;;;14.05;3.00;;;;;;;;;;5033151;28;20022;-31
2023/09/20 03:32:58;;;;;;;16.20;3.00;;;;;;;;;;5033270;28;20017;-31
2023/09/20 03:35:24;;;;;;;11.52;3.03;;;;;;;;;;5033511;28;20029;-31
2023/09/20 03:37:49;;;;;;;8.98;3.03;;;;;;;;;;5032103;28;20457;-33
2023/09/20 03:40:22;;;;;;;10.90;2.95;;;;;;;;;;5033359;28;20363;-31
2023/09/20 03:42:48;;;;;;;13.75;3.05;;;;;;;;;;5033422;28;20100;-31
2023/09/20 03:45:14;;;;;;;13.70;3.40;;;;;;;;;;5033050;28;20018;-31
2023/09/20 03:47:40;;;;;;;10.82;3.00;;;;;;;;;;5033325;28;20022;-31
2023/09/20 03:50:07;;;;;;;15.07;3.10;;;;;;;;;;5033108;28;20014;-31
2023/09/20 03:52:32;;;;;;;10.60;3.15;;;;;;;;;;5034099;28;20024;-31
2023/09/20 03:54:57;;;;;;;13.15;3.20;;;;;;;;;;5032973;28;20018;-32
2023/09/20 03:57:24;;;;;;;10.77;3.10;;;;;;;;;;5033300;28;20032;-31
2023/09/20 03:59:53;;;;;;;9.75;3.35;;;;;;;;;;5033208;28;20376;-32
2023/09/20 04:02:18;;;;;;;16.63;3.20;;;;;;;;;;5034021;28;20025;-31
2023/09/20 04:04:44;;;;;;;10.48;2.90;;;;;;;;;;5036466;28;20354;-31
2023/09/20 04:07:09;;;;;;;8.50;2.70;;;;;;;;;;5036515;28;20414;-31
2023/09/20 04:09:35;;;;;;;11.13;3.10;;;;;;;;;;5036680;28;20017;-31
2023/09/20 04:12:01;;;;;;;11.90;3.10;;;;;;;;;;5036429;28;20279;-29
2023/09/20 04:14:26;;;;;;;11.85;3.00;;;;;;;;;;5036457;28;20376;-32
2023/09/20 04:16:53;;;;;;;10.53;2.63;;;;;;;;;;5036354;28;20028;-32
2023/09/20 04:19:21;;;;;;;10.43;2.90;;;;;;;;;;5036303;28;20057;-31
2023/09/20 04:21:46;;;;;;;9.25;2.90;;;;;;;;;;5036510;28;20017;-31
2023/09/20 04:24:11;;;;;;;8.02;2.85;;;;;;;;;;5036161;28;20092;-31
2023/09/20 04:26:36;;;;;;;10.23;2.93;;;;;;;;;;5036280;28;20021;-31
2023/09/20 04:29:02;;;;;;;9.50;2.60;;;;;;;;;;5036111;28;20335;-32
2023/09/20 04:31:28;;;;;;;8.05;2.65;;;;;;;;;;5036360;28;20287;-33
2023/09/20 04:33:54;;;;;;;7.57;2.70;;;;;;;;;;5036141;28;20042;-32
2023/09/20 04:36:19;;;;;;;13.23;2.95;;;;;;;;;;5035986;28;20057;-32
2023/09/20 04:38:44;;;;;;;9.68;2.58;;;;;;;;;;5036549;28;20044;-32
2023/09/20 04:41:12;;;;;;;10.02;2.78;;;;;;;;;;5035922;28;20017;-39
2023/09/20 04:43:38;;;;;;;11.02;2.50;;;;;;;;;;5036155;28;20476;-32
2023/09/20 04:46:04;;;;;;;10.10;2.60;;;;;;;;;;5036053;28;20052;-32
2023/09/20 04:48:30;;;;;;;9.32;2.75;;;;;;;;;;5036113;28;20439;-32
2023/09/20 04:50:55;;;;;;;6.25;2.58;;;;;;;;;;5035741;28;20013;-32
2023/09/20 04:53:21;;;;;;;8.52;2.83;;;;;;;;;;5035737;28;20024;-32
2023/09/20 04:55:46;;;;;;;10.55;2.60;;;;;;;;;;5035664;28;20476;-32
2023/09/20 04:58:12;;;;;;;8.00;2.60;;;;;;;;;;5035909;28;20368;-32
2023/09/20 05:00:37;;;;;;;5.80;2.60;;;;;;;;;;5035594;28;20329;-32
2023/09/20 05:03:03;;;;;;;10.47;2.60;;;;;;;;;;5035867;28;20052;-32
2023/09/20 05:05:28;;;;;;;7.82;2.63;;;;;;;;;;5035339;28;20033;-31
2023/09/20 05:07:53;;;;;;;9.45;2.88;;;;;;;;;;5035484;28;20022;-32
2023/09/20 05:10:19;;;;;;;11.40;2.80;;;;;;;;;;5034136;28;20017;-32
2023/09/20 05:12:44;;;;;;;9.37;2.63;;;;;;;;;;5034910;28;20014;-31
2023/09/20 05:15:12;;;;;;;7.07;2.70;;;;;;;;;;5035258;28;20080;-32
2023/09/20 05:17:38;;;;;;;10.70;3.20;;;;;;;;;;5035179;28;20271;-31
2023/09/20 05:20:05;;;;;;;7.93;2.65;;;;;;;;;;5035216;28;20017;-31
2023/09/20 05:22:30;;;;;;;7.72;2.53;;;;;;;;;;5035400;28;20143;-32
2023/09/20 05:24:57;;;;;;;9.57;2.67;;;;;;;;;;5035010;28;20100;-31
2023/09/20 05:27:23;;;;;;;8.15;2.70;;;;;;;;;;5035265;28;20513;-31
2023/09/20 05:29:50;;;;;;;6.70;2.60;;;;;;;;;;5035016;28;20014;-31
2023/09/20 05:32:15;;;;;;;10.70;2.80;;;;;;;;;;5035210;28;20022;-31
2023/09/20 05:34:42;;;;;;;10.35;2.63;;;;;;;;;;5034676;28;20511;-31
2023/09/20 05:37:07;;;;;;;10.85;2.92;;;;;;;;;;5035050;28;20118;-31
2023/09/20 05:39:34;;;;;;;9.00;2.80;;;;;;;;;;5034718;28;20443;-31
2023/09/20 05:42:00;;;;;;;11.25;3.25;;;;;;;;;;5034717;28;20028;-31
2023/09/20 05:44:25;;;;;;;11.63;2.90;;;;;;;;;;5035243;28;20363;-30
2023/09/20 05:46:51;;;;;;;13.25;3.30;;;;;;;;;;5034633;28;20263;-31
2023/09/20 05:49:17;;;;;;;14.88;3.17;;;;;;;;;;5034619;28;20033;-31
2023/09/20 05:51:44;;;;;;;8.75;2.72;;;;;;;;;;5034761;28;20020;-31
2023/09/20 05:54:09;;;;;;;7.50;2.75;;;;;;;;;;5034987;28;20027;-31
2023/09/20 05:56:35;;;;;;;11.20;2.87;;;;;;;;;;5034481;28;20049;-31
2023/09/20 05:59:01;;;;;;;10.45;2.80;;;;;;;;;;5033199;28;20742;-32
2023/09/20 06:01:30;;;;;;;11.60;2.78;;;;;;;;;;5034337;28;20014;-33
2023/09/20 06:03:56;;;;;;;9.68;2.85;;;;;;;;;;5032885;28;20022;-32
2023/09/20 06:06:21;;;;;;;12.43;3.10;;;;;;;;;;5034799;28;20381;-32
2023/09/20 06:08:46;;;;;;;11.40;2.83;;;;;;;;;;5034222;28;20033;-32
2023/09/20 06:11:12;;;;;;;10.93;3.30;;;;;;;;;;5034167;28;20100;-31
2023/09/20 06:13:38;;;;;;;11.90;3.17;;;;;;;;;;5034689;28;20025;-32
2023/09/20 06:16:05;;;;;;;9.45;2.60;;;;;;;;;;5034681;28;20323;-31
2023/09/20 06:18:30;;;;;;;9.55;2.80;;;;;;;;;;5034034;28;20376;-31
2023/09/20 06:20:59;;;;;;;9.70;2.60;;;;;;;;;;5033997;28;20033;-31
2023/09/20 06:23:26;;;;;;;7.18;2.58;;;;;;;;;;5033900;28;20267;-31
2023/09/20 06:25:53;;;;;;;10.05;2.60;;;;;;;;;;5033053;28;20025;-31
2023/09/20 06:28:19;;;;;;;11.30;3.03;;;;;;;;;;5033197;28;20493;-31
2023/09/20 06:30:44;;;;;;;13.57;2.83;;;;;;;;;;5033751;28;20021;-30
2023/09/20 06:33:11;;;;;;;11.93;2.63;;;;;;;;;;5033980;28;20132;-30
2023/09/20 06:35:39;;;;;;;12.68;2.70;;;;;;;;;;5034610;28;20045;-31
2023/09/20 06:38:05;;;;;;;8.85;2.65;;;;;;;;;;5033925;28;20112;-32
2023/09/20 06:40:39;;;;;;;8.95;2.65;;;;;;;;;;5032443;28;20106;-32
2023/09/20 06:43:07;;;;;;;6.40;2.53;;;;;;;;;;5033310;28;20104;-31
2023/09/20 06:45:32;;;;;;;10.23;3.08;;;;;;;;;;5032936;28;20353;-31
2023/09/20 06:47:57;;;;;;;8.63;2.70;;;;;;;;;;5033841;28;20033;-31
2023/09/20 06:50:23;;;;;;;12.20;3.58;;;;;;;;;;5032021;28;20024;-31
2023/09/20 06:52:51;;;;;;;7.53;2.30;;;;;;;;;;5033320;28;20025;-31
2023/09/20 06:55:18;;;;;;;12.73;3.10;;;;;;;;;;5032219;28;20029;-32
2023/09/20 06:57:47;;;;;;;15.15;2.88;;;;;;;;;;5033614;28;20053;-31
2023/09/20 07:00:25;;;;;;;7.13;2.30;;;;;;;;;;5033684;28;20096;-31
2023/09/20 07:02:51;;;;;;;14.57;2.95;;;;;;;;;;5033555;28;20052;-32
2023/09/20 07:05:17;;;;;;;9.43;2.67;;;;;;;;;;5033555;28;20021;-31
2023/09/20 07:07:43;;;;;;;13.75;2.80;;;;;;;;;;5033367;28;20022;-31
2023/09/20 07:10:09;;;;;;;9.25;3.30;;;;;;;;;;5033734;28;20116;-31
2023/09/20 07:12:36;;;;;;;7.25;2.60;;;;;;;;;;5033479;28;20022;-32
2023/09/20 07:15:06;;;;;;;10.85;2.78;;;;;;;;;;5033215;28;20040;-32
2023/09/20 07:17:31;;;;;;;7.80;2.58;;;;;;;;;;5033468;28;20104;-32
2023/09/20 07:19:57;;;;;;;7.70;3.03;;;;;;;;;;5033388;28;20515;-32
2023/09/20 07:22:23;;;;;;;10.40;3.13;;;;;;;;;;5033087;28;20021;-32
2023/09/20 07:24:54;;;;;;;9.90;3.20;;;;;;;;;;5032910;28;20017;-32
2023/09/20 07:27:19;;;;;;;9.07;3.47;;;;;;;;;;5032999;28;20028;-32
2023/09/20 07:29:45;;;;;;;9.05;3.20;;;;;;;;;;5033569;28;20021;-32
2023/09/20 07:32:12;;;;;;;9.02;3.13;;;;;;;;;;5033026;28;20013;-32
2023/09/20 07:34:37;;;;;;;8.63;3.20;;;;;;;;;;5032866;28;20060;-31
2023/09/20 07:37:02;;;;;;;7.30;3.20;;;;;;;;;;5035603;28;20126;-32
2023/09/20 07:39:28;;;;;;;9.57;3.22;;;;;;;;;;5037193;28;20021;-32
2023/09/20 07:41:58;;;;;;;8.77;2.95;;;;;;;;;;5037283;28;20414;-32
2023/09/20 07:44:31;;;;;;;8.75;3.15;;;;;;;;;;5036870;28;20033;-32
2023/09/20 07:46:57;;;;;;;9.50;3.00;;;;;;;;;;5037160;28;20429;-31
2023/09/20 07:49:22;;;;;;;7.65;3.17;;;;;;;;;;5037229;28;20021;-32
2023/09/20 07:51:50;;;;;;;13.35;3.40;;;;;;;;;;5036753;28;20423;-32
2023/09/20 07:54:17;;;;;;;8.48;3.20;;;;;;;;;;5037299;28;20048;-32
2023/09/20 07:56:43;;;;;;;10.55;3.10;;;;;;;;;;5036979;28;20020;-32
2023/09/20 07:59:08;;;;;;;6.78;3.47;;;;;;;;;;5036448;28;20376;-30
2023/09/20 08:01:34;;;;;;;7.82;2.90;;;;;;;;;;5036518;28;20104;-32
2023/09/20 08:03:59;;;;;;;10.30;3.33;;;;;;;;;;5035907;28;20167;-31
2023/09/20 08:06:24;;;;;;;8.65;3.17;;;;;;;;;;5035941;28;20013;-30
2023/09/20 08:08:49;;;;;;;7.87;3.40;;;;;;;;;;5036076;28;20014;-31
2023/09/20 08:11:15;;;;;;;7.90;3.38;;;;;;;;;;5036527;28;20103;-31
2023/09/20 08:13:40;;;;;;;9.90;3.50;;;;;;;;;;5036229;28;20021;-31
2023/09/20 08:16:09;;;;;;;8.17;3.20;;;;;;;;;;5036354;28;20731;-31
2023/09/20 08:21:19;;;;;;;8.35;3.30;;;;;;;;;;5036435;28;20051;-31
2023/09/20 09:02:14;;;;;;;6.82;3.42;;;;;;;;;;5035970;28;20475;-31
2023/09/20 09:04:41;;;;;;;8.80;3.40;;;;;;;;;;5035829;28;20018;-31
2023/09/20 09:07:06;;;;;;;9.23;3.40;;;;;;;;;;5035687;28;20448;-31
2023/09/20 09:09:31;;;;;;;8.65;3.20;;;;;;;;;;5035535;28;20056;-32
2023/09/20 09:11:59;;;;;;;11.88;3.45;;;;;;;;;;5035596;28;20056;-32
2023/09/20 09:14:25;;;;;;;7.45;3.17;;;;;;;;;;5036016;28;20029;-32
2023/09/20 09:16:59;;;;;;;8.00;3.13;;;;;;;;;;5036066;28;20021;-31
2023/09/20 09:19:24;;;;;;;9.75;3.38;;;;;;;;;;5036319;28;20029;-31
2023/09/20 09:21:50;;;;;;;13.17;3.27;;;;;;;;;;5035885;28;20020;-31
2023/09/20 09:24:15;;;;;;;12.05;3.13;;;;;;;;;;5035715;28;20291;-31
2023/09/20 09:26:40;;;;;;;9.07;3.03;;;;;;;;;;5035236;28;20021;-31
2023/09/20 09:29:06;;;;;;;10.32;3.22;;;;;;;;;;5035304;28;20065;-31
2023/09/20 09:31:31;;;;;;;7.28;3.05;;;;;;;;;;5035591;28;20393;-32
2023/09/20 09:34:01;;;;;;;7.38;3.10;;;;;;;;;;5034636;28;20053;-31
2023/09/20 09:36:26;;;;;;;14.85;3.50;;;;;;;;;;5035596;28;20022;-31
2023/09/20 09:39:07;;;;;;;14.90;3.40;;;;;;;;;;5035341;28;20108;-31
2023/09/20 09:41:42;;;;;;;8.57;3.40;;;;;;;;;;5034002;28;20455;-31
2023/09/20 09:44:08;;;;;;;9.02;3.47;;;;;;;;;;5034614;28;20022;-31
2023/09/20 09:46:40;;;;;;;9.18;3.30;;;;;;;;;;5033388;28;20431;-31
2023/09/20 09:49:10;;;;;;;8.98;3.35;;;;;;;;;;5033763;28;20032;-31
2023/09/20 09:51:45;;;;;;;11.70;3.33;;;;;;;;;;5033046;28;20017;-30
2023/09/20 09:54:14;;;;;;;8.68;2.92;;;;;;;;;;5034893;28;20101;-31
2023/09/20 09:56:39;;;;;;;9.27;3.28;;;;;;;;;;5034163;28;20116;-31
2023/09/20 09:59:07;;;;;;;14.40;3.53;;;;;;;;;;5034880;28;20060;-31
2023/09/20 10:01:36;;;;;;;12.38;3.28;;;;;;;;;;5034092;28;20056;-31
2023/09/20 10:04:05;;;;;;;8.40;2.85;;;;;;;;;;5034586;28;20369;-31
2023/09/20 10:06:32;;;;;;;6.88;3.30;;;;;;;;;;5034729;28;20406;-32
2023/09/20 10:09:00;;;;;;;11.00;2.83;;;;;;;;;;5034343;28;20040;-32
2023/09/20 10:11:25;;;;;;;14.55;3.35;;;;;;;;;;5034348;28;20017;-32
2023/09/20 10:13:55;;;;;;;14.35;3.05;;;;;;;;;;5035052;28;20032;-32
2023/09/20 10:16:20;;;;;;;6.28;2.85;;;;;;;;;;5034538;28;20014;-32
2023/09/20 10:18:51;;;;;;;10.02;3.20;;;;;;;;;;5034711;28;20017;-32
2023/09/20 10:21:20;;;;;;;9.27;3.25;;;;;;;;;;5033119;28;20021;-32
2023/09/20 10:23:47;;;;;;;7.72;2.88;;;;;;;;;;5033679;28;20024;-30
2023/09/20 10:26:13;;;;;;;10.82;3.00;;;;;;;;;;5033987;28;20052;-31
2023/09/20 10:28:45;;;;;;;7.82;2.92;;;;;;;;;;5032868;28;20476;-31
2023/09/20 10:31:14;;;;;;;8.20;2.80;;;;;;;;;;5033811;28;20021;-31
2023/09/20 10:33:46;;;;;;;9.50;3.30;;;;;;;;;;5033306;28;20496;-30
2023/09/20 10:36:13;;;;;;;9.88;2.95;;;;;;;;;;5032744;28;20022;-31
2023/09/20 10:38:39;;;;;;;6.43;2.53;;;;;;;;;;5031562;28;20028;-30
2023/09/20 10:41:07;;;;;;;7.25;3.00;;;;;;;;;;5031696;28;20067;-31
2023/09/20 10:43:35;;;;;;;6.72;3.00;;;;;;;;;;5030323;28;20024;-31
2023/09/20 10:46:05;;;;;;;8.15;2.75;;;;;;;;;;5030387;28;20100;-31
2023/09/20 10:48:32;;;;;;;6.00;2.80;;;;;;;;;;5031305;28;20520;-31
2023/09/20 10:50:58;;;;;;;8.55;2.95;;;;;;;;;;5031506;28;20476;-31
2023/09/20 10:53:41;;;;;;;8.98;2.97;;;;;;;;;;5032503;28;20028;-31
2023/09/20 10:56:08;;;;;;;7.32;2.70;;;;;;;;;;5033425;28;20048;-31
2023/09/20 10:58:33;;;;;;;11.73;3.20;;;;;;;;;;5033298;28;20017;-31
2023/09/20 11:00:58;;;;;;;6.53;2.70;;;;;;;;;;5033338;28;20029;-30
2023/09/20 11:03:23;;;;;;;6.80;2.60;;;;;;;;;;5034435;28;20025;-30
2023/09/20 11:05:49;;;;;;;9.75;2.88;;;;;;;;;;5033562;28;20105;-30
2023/09/20 11:08:14;;;;;;;11.15;3.00;;;;;;;;;;5033516;28;20022;-31
2023/09/20 11:10:40;;;;;;;5.60;2.80;;;;;;;;;;5034236;28;20017;-31
2023/09/20 11:13:08;;;;;;;8.05;2.85;;;;;;;;;;5040220;28;20036;-31
2023/09/20 11:15:40;;;;;;;10.25;3.45;;;;;;;;;;5040130;28;20055;-31
2023/09/20 11:18:05;;;;;;;13.63;3.60;;;;;;;;;;5040140;28;20349;-31
2023/09/20 11:20:31;;;;;;;7.20;2.97;;;;;;;;;;5040099;28;20067;-31
2023/09/20 11:22:56;;;;;;;7.50;3.10;;;;;;;;;;5039834;28;20079;-35
2023/09/20 11:25:22;;;;;;;8.70;2.97;;;;;;;;;;5039625;28;20071;-32
2023/09/20 11:27:47;;;;;;;9.97;3.10;;;;;;;;;;5040111;28;20028;-31
2023/09/20 11:30:13;;;;;;;6.70;2.80;;;;;;;;;;5040334;28;20056;-32
2023/09/20 11:32:39;;;;;;;7.03;2.63;;;;;;;;;;5039682;28;20010;-31
2023/09/20 11:35:06;;;;;;;9.57;2.97;;;;;;;;;;5039657;28;20381;-32
2023/09/20 11:37:35;;;;;;;4.72;2.60;;;;;;;;;;5040005;28;20051;-32
2023/09/20 11:40:00;;;;;;;6.80;2.78;;;;;;;;;;5038504;28;20025;-33
2023/09/20 11:42:32;;;;;;;7.47;2.90;;;;;;;;;;5039667;28;20041;-30
2023/09/20 11:44:58;;;;;;;8.38;2.88;;;;;;;;;;5039581;28;20025;-31
2023/09/20 11:47:24;;;;;;;10.05;2.70;;;;;;;;;;5039742;28;20013;-31
2023/09/20 11:49:50;;;;;;;7.38;2.40;;;;;;;;;;5039616;28;20479;-30
2023/09/20 11:52:20;;;;;;;8.10;2.90;;;;;;;;;;5039812;28;20425;-31
2023/09/20 11:54:45;;;;;;;6.05;2.70;;;;;;;;;;5039067;28;20032;-31
2023/09/20 11:57:15;;;;;;;8.73;2.70;;;;;;;;;;5039610;28;20037;-31
2023/09/20 11:59:45;;;;;;;5.97;2.65;;;;;;;;;;5039948;28;20761;-31
2023/09/20 12:02:12;;;;;;;12.10;2.92;;;;;;;;;;5039699;28;20101;-31
2023/09/20 12:04:37;;;;;;;7.10;2.90;;;;;;;;;;5039616;28;20033;-31
2023/09/20 12:07:03;;;;;;;6.13;3.45;;;;;;;;;;5040011;28;20020;-31
2023/09/20 12:09:28;;;;;;;7.73;2.70;;;;;;;;;;5039972;28;20045;-31
2023/09/20 12:11:53;;;;;;;6.27;2.93;;;;;;;;;;5039767;28;20782;-31
2023/09/20 12:14:18;;;;;;;8.88;2.88;;;;;;;;;;5039963;28;20603;-32
2023/09/20 12:16:47;;;;;;;8.02;3.22;;;;;;;;;;5037914;28;20028;-31
2023/09/20 12:19:14;;;;;;;10.23;3.13;;;;;;;;;;5039352;28;20033;-31
2023/09/20 12:21:39;;;;;;;7.20;3.05;;;;;;;;;;5039606;28;20459;-31
2023/09/20 12:24:04;;;;;;;8.40;3.07;;;;;;;;;;5034987;28;20022;-31
2023/09/20 12:26:29;;;;;;;10.65;3.03;;;;;;;;;;5036129;28;20022;-31
2023/09/20 12:28:55;;;;;;;8.13;3.10;;;;;;;;;;5036394;28;20400;-32
2023/09/20 12:31:23;;;;;;;9.27;3.15;;;;;;;;;;5036118;28;20021;-31
2023/09/20 12:33:49;;;;;;;8.30;3.53;;;;;;;;;;5036032;28;20049;-31
2023/09/20 12:36:14;;;;;;;10.07;3.30;;;;;;;;;;5036265;28;20096;-31
2023/09/20 12:38:40;;;;;;;5.28;2.78;;;;;;;;;;5035984;28;20435;-32
2023/09/20 12:41:08;;;;;;;8.50;2.80;;;;;;;;;;5036686;28;20017;-32
2023/09/20 12:43:33;;;;;;;14.70;3.88;;;;;;;;;;5036171;28;20022;-32
2023/09/20 12:45:59;;;;;;;6.35;3.25;;;;;;;;;;5036289;28;20471;-32
2023/09/20 12:48:24;;;;;;;6.60;3.10;;;;;;;;;;5035870;28;20075;-31
2023/09/20 12:50:49;;;;;;;6.88;3.08;;;;;;;;;;5035775;28;20026;-31
2023/09/20 12:53:14;;;;;;;7.95;3.05;;;;;;;;;;5034609;28;20476;-31
2023/09/20 12:55:40;;;;;;;7.60;2.90;;;;;;;;;;5034382;28;20136;-32
2023/09/20 12:58:06;;;;;;;5.50;2.70;;;;;;;;;;5035600;28;20028;-31
2023/09/20 13:00:32;;;;;;;9.35;3.08;;;;;;;;;;5035723;28;20104;-31
2023/09/20 13:02:59;;;;;;;10.02;3.40;;;;;;;;;;5035503;28;20389;-31
2023/09/20 13:05:24;;;;;;;7.95;2.75;;;;;;;;;;5035662;28;20017;-31
2023/09/20 13:07:49;;;;;;;8.30;3.08;;;;;;;;;;5035405;28;20488;-31
2023/09/20 13:10:15;;;;;;;10.50;3.13;;;;;;;;;;5035415;28;20092;-31
2023/09/20 13:12:40;;;;;;;13.97;3.90;;;;;;;;;;5035358;28;20260;-31
2023/09/20 13:15:08;;;;;;;7.82;3.15;;;;;;;;;;5035181;28;20267;-31
2023/09/20 13:17:33;;;;;;;7.75;2.90;;;;;;;;;;5035205;28;20052;-31
2023/09/20 13:19:59;;;;;;;7.32;2.90;;;;;;;;;;5034276;28;20484;-32
2023/09/20 13:22:25;;;;;;;8.02;3.20;;;;;;;;;;5035304;28;20040;-31
2023/09/20 13:24:51;;;;;;;8.15;3.00;;;;;;;;;;5035205;28;20022;-32
2023/09/20 13:27:17;;;;;;;6.25;2.97;;;;;;;;;;5035770;28;20048;-32
2023/09/20 13:29:42;;;;;;;6.63;3.22;;;;;;;;;;5035235;28;20021;-32
2023/09/20 13:32:08;;;;;;;5.53;2.80;;;;;;;;;;5034952;28;20029;-31
2023/09/20 13:34:34;;;;;;;9.23;2.90;;;;;;;;;;5034028;28;20302;-32
2023/09/20 13:36:59;;;;;;;8.57;3.33;;;;;;;;;;5034515;28;20018;-32
2023/09/20 13:39:24;;;;;;;5.00;3.00;;;;;;;;;;5034437;28;20104;-31
2023/09/20 13:41:53;;;;;;;5.35;2.83;;;;;;;;;;5033835;28;20472;-32
2023/09/20 13:44:19;;;;;;;6.50;3.33;;;;;;;;;;5032590;28;20025;-32
2023/09/20 13:46:45;;;;;;;7.97;3.30;;;;;;;;;;5032812;28;20084;-30
2023/09/20 13:49:11;;;;;;;7.95;3.10;;;;;;;;;;5031879;28;20021;-31
2023/09/20 13:51:38;;;;;;;8.15;3.50;;;;;;;;;;5031900;28;20014;-31
2023/09/20 13:54:06;;;;;;;8.25;3.25;;;;;;;;;;5032356;28;20021;-31
2023/09/20 13:56:32;;;;;;;6.05;3.20;;;;;;;;;;5032694;28;20040;-31
2023/09/20 13:58:58;;;;;;;11.15;3.05;;;;;;;;;;5033665;28;20025;-31
2023/09/20 14:01:23;;;;;;;8.97;3.17;;;;;;;;;;5033772;28;20028;-31
2023/09/20 14:03:48;;;;;;;6.43;3.00;;;;;;;;;;5034026;28;20479;-41
2023/09/20 14:06:13;;;;;;;5.10;2.70;;;;;;;;;;5034343;28;20014;-31
2023/09/20 14:08:39;;;;;;;11.07;2.83;;;;;;;;;;5034614;28;20372;-32
2023/09/20 14:11:06;;;;;;;6.03;2.60;;;;;;;;;;5033099;28;20104;-31
2023/09/20 14:13:31;;;;;;;6.40;2.53;;;;;;;;;;5034141;28;20009;-31
2023/09/20 14:15:57;;;;;;;5.80;2.90;;;;;;;;;;5034462;28;20029;-31
2023/09/20 14:18:22;;;;;;;6.60;2.70;;;;;;;;;;5032801;28;20491;-30
2023/09/20 14:20:50;;;;;;;5.57;2.80;;;;;;;;;;5034607;28;20389;-31
2023/09/20 14:23:15;;;;;;;6.03;2.92;;;;;;;;;;5033938;28;20020;-31
2023/09/20 14:25:40;;;;;;;7.03;2.85;;;;;;;;;;5033902;28;20375;-32
2023/09/20 14:28:06;;;;;;;8.27;3.17;;;;;;;;;;5033904;28;20010;-31
2023/09/20 14:30:34;;;;;;;6.15;2.75;;;;;;;;;;5033868;28;20249;-31
2023/09/20 14:33:00;;;;;;;5.28;2.80;;;;;;;;;;5033775;28;20024;-32
2023/09/20 14:35:25;;;;;;;6.75;2.85;;;;;;;;;;5033970;28;20033;-32
2023/09/20 14:37:53;;;;;;;6.63;2.30;;;;;;;;;;5032525;28;20091;-31
2023/09/20 14:40:19;;;;;;;6.75;2.50;;;;;;;;;;5032257;28;20025;-31
2023/09/20 14:42:45;;;;;;;9.00;2.40;;;;;;;;;;5033143;28;20476;-32
2023/09/20 14:45:12;;;;;;;7.75;2.47;;;;;;;;;;5033070;28;20097;-31
2023/09/20 14:47:37;;;;;;;6.88;2.42;;;;;;;;;;5032662;28;20030;-31
2023/09/20 14:50:03;;;;;;;7.00;2.20;;;;;;;;;;5032751;28;20082;-32
2023/09/20 14:52:29;;;;;;;4.60;2.40;;;;;;;;;;5029838;28;20024;-32
2023/09/20 14:54:55;;;;;;;6.15;2.35;;;;;;;;;;5031131;28;20014;-32
2023/09/20 14:57:20;;;;;;;6.97;2.25;;;;;;;;;;5031159;28;20021;-30
2023/09/20 14:59:46;;;;;;;8.38;2.50;;;;;;;;;;5032313;28;20026;-32
2023/09/20 15:02:11;;;;;;;9.95;2.38;;;;;;;;;;5032549;28;20040;-31
2023/09/20 15:04:36;;;;;;;6.43;1.90;;;;;;;;;;5032448;28;20029;-32
2023/09/20 15:07:01;;;;;;;7.57;2.20;;;;;;;;;;5033146;28;20422;-31
2023/09/20 15:09:27;;;;;;;5.93;2.30;;;;;;;;;;5033420;28;20257;-31
2023/09/20 15:11:52;;;;;;;4.37;2.03;;;;;;;;;;5033311;28;20041;-31
2023/09/20 15:14:18;;;;;;;5.40;2.10;;;;;;;;;;5033678;28;20021;-31